sensor_id;sensor_type;location;lat;lon;timestamp;temperature;humidity
64501;DHT22;50874;24.150;-110.320;2023-08-20T03:02:48;25.20;99.90
64501;DHT22;50874;24.150;-110.320;2023-08-20T03:05:14;25.50;99.90
64501;DHT22;50874;24.150;-110.320;2023-08-20T03:07:41;25.50;99.90
64501;DHT22;50874;24.150;-110.320;2023-08-20T03:10:07;25.40;99.90
64501;DHT22;50874;24.150;-110.320;2023-08-20T03:12:34;25.40;99.90
64501;DHT22;50874;24.150;-110.320;2023-08-20T03:15:00;25.40;99.90
64501;DHT22;50874;24.150;-110.320;2023-08-20T03:17:28;25.40;99.90
64501;DHT22;50874;24.150;-110.320;2023-08-20T03:19:56;25.40;99.90
64501;DHT22;50874;24.150;-110.320;2023-08-20T03:22:25;25.30;99.90
64501;DHT22;50874;24.150;-110.320;2023-08-20T03:24:52;25.30;99.90
64501;DHT22;50874;24.150;-110.320;2023-08-20T03:27:19;25.20;99.90
64501;DHT22;50874;24.150;-110.320;2023-08-20T03:29:46;25.20;99.90
64501;DHT22;50874;24.150;-110.320;2023-08-20T03:32:12;25.20;99.90
64501;DHT22;50874;24.150;-110.320;2023-08-20T03:34:39;25.20;99.90
64501;DHT22;50874;24.150;-110.320;2023-08-20T03:37:05;25.20;99.90
64501;DHT22;50874;24.150;-110.320;2023-08-20T03:39:32;25.20;99.90
64501;DHT22;50874;24.150;-110.320;2023-08-20T03:41:59;25.20;99.90
64501;DHT22;50874;24.150;-110.320;2023-08-20T03:44:25;25.20;99.90
64501;DHT22;50874;24.150;-110.320;2023-08-20T03:46:52;25.20;99.90
64501;DHT22;50874;24.150;-110.320;2023-08-20T03:49:18;25.20;99.90
64501;DHT22;50874;24.150;-110.320;2023-08-20T03:51:44;25.20;99.90
64501;DHT22;50874;24.150;-110.320;2023-08-20T03:54:11;25.10;99.90
64501;DHT22;50874;24.150;-110.320;2023-08-20T03:56:37;25.10;99.90
64501;DHT22;50874;24.150;-110.320;2023-08-20T03:59:04;25.10;99.90
64501;DHT22;50874;24.150;-110.320;2023-08-20T04:01:30;25.00;99.90
64501;DHT22;50874;24.150;-110.320;2023-08-20T04:03:57;25.00;99.90
64501;DHT22;50874;24.150;-110.320;2023-08-20T04:06:23;25.00;99.90
64501;DHT22;50874;24.150;-110.320;2023-08-20T04:08:50;25.00;99.90
64501;DHT22;50874;24.150;-110.320;2023-08-20T04:11:16;24.90;99.90
64501;DHT22;50874;24.150;-110.320;2023-08-20T04:13:43;24.90;99.90
64501;DHT22;50874;24.150;-110.320;2023-08-20T04:16:11;24.90;99.90
64501;DHT22;50874;24.150;-110.320;2023-08-20T04:18:37;24.80;99.90
64501;DHT22;50874;24.150;-110.320;2023-08-20T04:21:03;24.80;99.90
64501;DHT22;50874;24.150;-110.320;2023-08-20T04:23:30;24.80;99.90
64501;DHT22;50874;24.150;-110.320;2023-08-20T04:25:56;24.80;99.90
64501;DHT22;50874;24.150;-110.320;2023-08-20T04:28:23;24.80;99.90
64501;DHT22;50874;24.150;-110.320;2023-08-20T04:30:52;24.80;99.90
64501;DHT22;50874;24.150;-110.320;2023-08-20T04:33:20;24.70;99.90
64501;DHT22;50874;24.150;-110.320;2023-08-20T04:35:48;24.70;99.90
64501;DHT22;50874;24.150;-110.320;2023-08-20T04:38:16;24.70;99.90
64501;DHT22;50874;24.150;-110.320;2023-08-20T04:40:46;24.70;99.90
64501;DHT22;50874;24.150;-110.320;2023-08-20T04:43:13;24.80;99.90
64501;DHT22;50874;24.150;-110.320;2023-08-20T04:45:41;24.70;99.90
64501;DHT22;50874;24.150;-110.320;2023-08-20T04:48:08;24.70;99.90
64501;DHT22;50874;24.150;-110.320;2023-08-20T04:50:34;24.80;99.90
64501;DHT22;50874;24.150;-110.320;2023-08-20T04:53:01;24.80;99.90
64501;DHT22;50874;24.150;-110.320;2023-08-20T04:55:28;24.80;99.90
64501;DHT22;50874;24.150;-110.320;2023-08-20T04:57:54;24.80;99.90
64501;DHT22;50874;24.150;-110.320;2023-08-20T05:00:22;24.80;99.90
64501;DHT22;50874;24.150;-110.320;2023-08-20T05:02:48;24.80;99.90
64501;DHT22;50874;24.150;-110.320;2023-08-20T05:05:15;24.80;99.90
64501;DHT22;50874;24.150;-110.320;2023-08-20T05:07:42;24.80;99.90
64501;DHT22;50874;24.150;-110.320;2023-08-20T05:10:08;24.70;99.90
64501;DHT22;50874;24.150;-110.320;2023-08-20T05:12:36;24.80;99.90
64501;DHT22;50874;24.150;-110.320;2023-08-20T05:15:03;24.80;99.90
64501;DHT22;50874;24.150;-110.320;2023-08-20T05:17:29;24.80;99.90
64501;DHT22;50874;24.150;-110.320;2023-08-20T05:19:55;24.80;99.90
64501;DHT22;50874;24.150;-110.320;2023-08-20T05:22:22;24.80;99.90
64501;DHT22;50874;24.150;-110.320;2023-08-20T05:24:48;24.80;99.90
64501;DHT22;50874;24.150;-110.320;2023-08-20T05:27:16;24.80;99.90
64501;DHT22;50874;24.150;-110.320;2023-08-20T05:29:45;24.80;99.90
64501;DHT22;50874;24.150;-110.320;2023-08-20T05:32:12;24.80;99.90
64501;DHT22;50874;24.150;-110.320;2023-08-20T05:34:38;24.80;99.90
64501;DHT22;50874;24.150;-110.320;2023-08-20T05:37:05;24.80;99.90
64501;DHT22;50874;24.150;-110.320;2023-08-20T05:39:37;24.80;99.90
64501;DHT22;50874;24.150;-110.320;2023-08-20T05:42:04;24.90;99.90
64501;DHT22;50874;24.150;-110.320;2023-08-20T05:44:31;24.90;99.90
64501;DHT22;50874;24.150;-110.320;2023-08-20T05:46:58;24.90;99.90
64501;DHT22;50874;24.150;-110.320;2023-08-20T05:49:24;24.90;99.90
64501;DHT22;50874;24.150;-110.320;2023-08-20T05:51:51;24.90;99.90
64501;DHT22;50874;24.150;-110.320;2023-08-20T05:54:17;25.00;99.90
64501;DHT22;50874;24.150;-110.320;2023-08-20T05:56:44;25.00;99.90
64501;DHT22;50874;24.150;-110.320;2023-08-20T05:59:10;25.00;99.90
64501;DHT22;50874;24.150;-110.320;2023-08-20T06:01:37;25.00;99.90
64501;DHT22;50874;24.150;-110.320;2023-08-20T06:04:03;25.00;99.90
64501;DHT22;50874;24.150;-110.320;2023-08-20T06:06:30;25.10;99.90
64501;DHT22;50874;24.150;-110.320;2023-08-20T06:08:56;25.10;99.90
64501;DHT22;50874;24.150;-110.320;2023-08-20T06:11:23;25.10;99.90
64501;DHT22;50874;24.150;-110.320;2023-08-20T06:13:49;25.10;99.90
64501;DHT22;50874;24.150;-110.320;2023-08-20T06:16:16;25.20;99.90
64501;DHT22;50874;24.150;-110.320;2023-08-20T06:18:42;25.20;99.90
64501;DHT22;50874;24.150;-110.320;2023-08-20T06:21:08;25.20;99.90
64501;DHT22;50874;24.150;-110.320;2023-08-20T06:23:35;25.20;99.90
64501;DHT22;50874;24.150;-110.320;2023-08-20T06:26:01;25.20;99.90
64501;DHT22;50874;24.150;-110.320;2023-08-20T06:28:28;25.30;99.90
64501;DHT22;50874;24.150;-110.320;2023-08-20T06:30:54;25.20;99.90
64501;DHT22;50874;24.150;-110.320;2023-08-20T06:33:22;25.20;99.90
64501;DHT22;50874;24.150;-110.320;2023-08-20T06:35:55;25.30;99.90
64501;DHT22;50874;24.150;-110.320;2023-08-20T06:38:21;25.30;99.90
64501;DHT22;50874;24.150;-110.320;2023-08-20T06:40:48;25.30;99.90
64501;DHT22;50874;24.150;-110.320;2023-08-20T06:43:14;25.30;99.90
64501;DHT22;50874;24.150;-110.320;2023-08-20T06:45:41;25.30;99.90
64501;DHT22;50874;24.150;-110.320;2023-08-20T06:48:07;25.30;99.90
64501;DHT22;50874;24.150;-110.320;2023-08-20T06:50:33;25.20;99.90
64501;DHT22;50874;24.150;-110.320;2023-08-20T06:53:00;25.30;99.90
64501;DHT22;50874;24.150;-110.320;2023-08-20T06:55:26;25.30;99.90
64501;DHT22;50874;24.150;-110.320;2023-08-20T06:57:53;25.30;99.90
64501;DHT22;50874;24.150;-110.320;2023-08-20T07:00:19;25.30;99.90
64501;DHT22;50874;24.150;-110.320;2023-08-20T07:02:46;25.30;99.90
64501;DHT22;50874;24.150;-110.320;2023-08-20T07:05:12;25.30;99.90
64501;DHT22;50874;24.150;-110.320;2023-08-20T07:07:40;25.20;99.90
64501;DHT22;50874;24.150;-110.320;2023-08-20T07:10:07;25.20;99.90
64501;DHT22;50874;24.150;-110.320;2023-08-20T07:12:34;25.20;99.90
64501;DHT22;50874;24.150;-110.320;2023-08-20T07:15:00;25.10;99.90
64501;DHT22;50874;24.150;-110.320;2023-08-20T07:17:26;25.10;99.90
64501;DHT22;50874;24.150;-110.320;2023-08-20T07:19:53;25.10;99.90
64501;DHT22;50874;24.150;-110.320;2023-08-20T07:22:19;25.10;99.90
64501;DHT22;50874;24.150;-110.320;2023-08-20T07:24:46;25.10;99.90
64501;DHT22;50874;24.150;-110.320;2023-08-20T07:27:12;25.10;99.90
64501;DHT22;50874;24.150;-110.320;2023-08-20T07:29:39;25.10;99.90
64501;DHT22;50874;24.150;-110.320;2023-08-20T07:32:06;25.20;99.90
64501;DHT22;50874;24.150;-110.320;2023-08-20T07:34:33;25.10;99.90
64501;DHT22;50874;24.150;-110.320;2023-08-20T07:37:00;25.20;99.90
64501;DHT22;50874;24.150;-110.320;2023-08-20T07:39:27;25.20;99.90
64501;DHT22;50874;24.150;-110.320;2023-08-20T07:41:54;25.20;99.90
64501;DHT22;50874;24.150;-110.320;2023-08-20T07:44:20;25.20;99.90
64501;DHT22;50874;24.150;-110.320;2023-08-20T07:46:46;25.20;99.90
64501;DHT22;50874;24.150;-110.320;2023-08-20T07:49:13;25.20;99.90
64501;DHT22;50874;24.150;-110.320;2023-08-20T07:51:39;25.20;99.90
64501;DHT22;50874;24.150;-110.320;2023-08-20T07:54:06;25.00;99.90
64501;DHT22;50874;24.150;-110.320;2023-08-20T07:56:32;24.80;99.90
64501;DHT22;50874;24.150;-110.320;2023-08-20T07:58:59;24.80;99.90
64501;DHT22;50874;24.150;-110.320;2023-08-20T08:01:25;24.70;99.90
64501;DHT22;50874;24.150;-110.320;2023-08-20T08:03:52;24.70;99.90
64501;DHT22;50874;24.150;-110.320;2023-08-20T08:06:18;24.70;99.90
64501;DHT22;50874;24.150;-110.320;2023-08-20T08:08:46;24.70;99.90
64501;DHT22;50874;24.150;-110.320;2023-08-20T08:11:13;24.70;99.90
64501;DHT22;50874;24.150;-110.320;2023-08-20T08:13:39;24.70;99.90
64501;DHT22;50874;24.150;-110.320;2023-08-20T08:16:06;24.60;99.90
64501;DHT22;50874;24.150;-110.320;2023-08-20T08:18:32;24.60;99.90
64501;DHT22;50874;24.150;-110.320;2023-08-20T08:20:59;24.60;99.90
64501;DHT22;50874;24.150;-110.320;2023-08-20T08:23:25;24.60;99.90
64501;DHT22;50874;24.150;-110.320;2023-08-20T08:25:52;24.60;99.90
64501;DHT22;50874;24.150;-110.320;2023-08-20T08:28:18;24.60;99.90
64501;DHT22;50874;24.150;-110.320;2023-08-20T08:30:44;24.60;99.90
64501;DHT22;50874;24.150;-110.320;2023-08-20T08:33:11;24.60;99.90
64501;DHT22;50874;24.150;-110.320;2023-08-20T08:35:37;24.60;99.90
64501;DHT22;50874;24.150;-110.320;2023-08-20T08:38:04;24.70;99.90
64501;DHT22;50874;24.150;-110.320;2023-08-20T08:40:31;24.70;99.90
64501;DHT22;50874;24.150;-110.320;2023-08-20T08:42:57;24.70;99.90
64501;DHT22;50874;24.150;-110.320;2023-08-20T08:45:26;24.70;99.90
64501;DHT22;50874;24.150;-110.320;2023-08-20T08:47:54;24.70;99.90
64501;DHT22;50874;24.150;-110.320;2023-08-20T08:50:21;24.70;99.90
64501;DHT22;50874;24.150;-110.320;2023-08-20T08:52:47;24.70;99.90
64501;DHT22;50874;24.150;-110.320;2023-08-20T08:55:17;24.70;99.90
64501;DHT22;50874;24.150;-110.320;2023-08-20T08:57:43;24.70;99.90
64501;DHT22;50874;24.150;-110.320;2023-08-20T09:00:10;24.70;99.90
64501;DHT22;50874;24.150;-110.320;2023-08-20T09:02:37;24.70;99.90
64501;DHT22;50874;24.150;-110.320;2023-08-20T09:05:05;24.70;99.90
64501;DHT22;50874;24.150;-110.320;2023-08-20T09:07:32;24.70;99.90
64501;DHT22;50874;24.150;-110.320;2023-08-20T09:09:59;24.70;99.90
64501;DHT22;50874;24.150;-110.320;2023-08-20T09:12:27;24.80;99.90
64501;DHT22;50874;24.150;-110.320;2023-08-20T09:14:53;24.80;99.90
64501;DHT22;50874;24.150;-110.320;2023-08-20T09:17:25;24.80;99.90
64501;DHT22;50874;24.150;-110.320;2023-08-20T09:19:56;24.80;99.90
64501;DHT22;50874;24.150;-110.320;2023-08-20T09:22:27;24.80;99.90
64501;DHT22;50874;24.150;-110.320;2023-08-20T09:24:55;24.80;99.90
64501;DHT22;50874;24.150;-110.320;2023-08-20T09:27:22;24.80;99.90
64501;DHT22;50874;24.150;-110.320;2023-08-20T09:29:53;24.80;99.90
64501;DHT22;50874;24.150;-110.320;2023-08-20T09:32:22;24.80;99.90
64501;DHT22;50874;24.150;-110.320;2023-08-20T09:34:50;24.80;99.90
64501;DHT22;50874;24.150;-110.320;2023-08-20T09:37:22;24.80;99.90
64501;DHT22;50874;24.150;-110.320;2023-08-20T09:39:49;24.80;99.90
64501;DHT22;50874;24.150;-110.320;2023-08-20T09:42:16;24.80;99.90
64501;DHT22;50874;24.150;-110.320;2023-08-20T09:44:44;24.70;99.90
64501;DHT22;50874;24.150;-110.320;2023-08-20T09:47:16;24.70;99.90
64501;DHT22;50874;24.150;-110.320;2023-08-20T09:49:46;24.70;99.90
64501;DHT22;50874;24.150;-110.320;2023-08-20T09:52:28;24.70;99.90
64501;DHT22;50874;24.150;-110.320;2023-08-20T09:55:00;24.70;99.90
64501;DHT22;50874;24.150;-110.320;2023-08-20T09:57:38;24.70;99.90
64501;DHT22;50874;24.150;-110.320;2023-08-20T10:00:09;24.70;99.90
64501;DHT22;50874;24.150;-110.320;2023-08-20T10:02:40;24.60;99.90
64501;DHT22;50874;24.150;-110.320;2023-08-20T10:05:08;24.60;99.90
64501;DHT22;50874;24.150;-110.320;2023-08-20T10:07:36;24.60;99.90
64501;DHT22;50874;24.150;-110.320;2023-08-20T10:10:05;24.60;99.90
64501;DHT22;50874;24.150;-110.320;2023-08-20T10:12:32;24.60;99.90
64501;DHT22;50874;24.150;-110.320;2023-08-20T10:15:00;24.50;99.90
64501;DHT22;50874;24.150;-110.320;2023-08-20T10:17:30;24.50;99.90
64501;DHT22;50874;24.150;-110.320;2023-08-20T10:19:58;24.50;99.90
64501;DHT22;50874;24.150;-110.320;2023-08-20T10:22:45;24.60;99.90
64501;DHT22;50874;24.150;-110.320;2023-08-20T10:25:22;24.50;99.90
64501;DHT22;50874;24.150;-110.320;2023-08-20T10:27:50;24.60;99.90
64501;DHT22;50874;24.150;-110.320;2023-08-20T10:30:24;24.60;99.90
64501;DHT22;50874;24.150;-110.320;2023-08-20T10:32:53;24.60;99.90
64501;DHT22;50874;24.150;-110.320;2023-08-20T10:35:46;24.60;99.90
64501;DHT22;50874;24.150;-110.320;2023-08-20T10:38:14;24.70;99.90
64501;DHT22;50874;24.150;-110.320;2023-08-20T10:40:57;24.70;99.90
64501;DHT22;50874;24.150;-110.320;2023-08-20T10:43:34;24.70;99.90
64501;DHT22;50874;24.150;-110.320;2023-08-20T11:08:23;24.50;99.90
64501;DHT22;50874;24.150;-110.320;2023-08-20T11:10:50;25.20;99.90
64501;DHT22;50874;24.150;-110.320;2023-08-20T11:13:16;25.00;99.90
64501;DHT22;50874;24.150;-110.320;2023-08-20T11:15:43;25.00;99.90
64501;DHT22;50874;24.150;-110.320;2023-08-20T11:18:11;24.90;99.90
64501;DHT22;50874;24.150;-110.320;2023-08-20T11:20:37;24.90;99.90
64501;DHT22;50874;24.150;-110.320;2023-08-20T11:23:05;24.90;99.90
64501;DHT22;50874;24.150;-110.320;2023-08-20T11:25:32;24.80;99.90
64501;DHT22;50874;24.150;-110.320;2023-08-20T11:27:58;24.80;99.90
64501;DHT22;50874;24.150;-110.320;2023-08-20T11:30:29;24.90;99.90
64501;DHT22;50874;24.150;-110.320;2023-08-20T11:32:56;24.80;99.90
64501;DHT22;50874;24.150;-110.320;2023-08-20T11:35:23;24.80;99.90
64501;DHT22;50874;24.150;-110.320;2023-08-20T11:37:50;24.80;99.90
64501;DHT22;50874;24.150;-110.320;2023-08-20T11:40:16;24.80;99.90
64501;DHT22;50874;24.150;-110.320;2023-08-20T11:42:43;24.80;99.90
64501;DHT22;50874;24.150;-110.320;2023-08-20T11:45:10;24.80;99.90
64501;DHT22;50874;24.150;-110.320;2023-08-20T11:47:41;24.80;99.90
64501;DHT22;50874;24.150;-110.320;2023-08-20T11:50:09;24.80;99.90
64501;DHT22;50874;24.150;-110.320;2023-08-20T11:52:36;24.80;99.90
64501;DHT22;50874;24.150;-110.320;2023-08-20T11:55:06;24.80;99.90
64501;DHT22;50874;24.150;-110.320;2023-08-20T11:57:32;24.80;99.90
64501;DHT22;50874;24.150;-110.320;2023-08-20T12:00:05;24.80;99.90
64501;DHT22;50874;24.150;-110.320;2023-08-20T12:02:41;24.80;99.90
64501;DHT22;50874;24.150;-110.320;2023-08-20T12:05:10;24.90;99.90
64501;DHT22;50874;24.150;-110.320;2023-08-20T12:07:36;24.90;99.90
64501;DHT22;50874;24.150;-110.320;2023-08-20T12:10:21;24.90;99.90
64501;DHT22;50874;24.150;-110.320;2023-08-20T12:12:49;24.90;99.90
64501;DHT22;50874;24.150;-110.320;2023-08-20T12:15:16;24.80;99.90
64501;DHT22;50874;24.150;-110.320;2023-08-20T12:17:42;24.80;99.90
64501;DHT22;50874;24.150;-110.320;2023-08-20T12:20:09;24.90;99.90
64501;DHT22;50874;24.150;-110.320;2023-08-20T12:22:41;24.80;99.90
64501;DHT22;50874;24.150;-110.320;2023-08-20T12:25:07;24.80;99.90
64501;DHT22;50874;24.150;-110.320;2023-08-20T12:27:34;24.80;99.90
64501;DHT22;50874;24.150;-110.320;2023-08-20T12:30:01;24.80;99.90
64501;DHT22;50874;24.150;-110.320;2023-08-20T12:32:27;24.70;99.90
64501;DHT22;50874;24.150;-110.320;2023-08-20T12:34:53;24.80;99.90
64501;DHT22;50874;24.150;-110.320;2023-08-20T12:37:20;24.80;99.90
64501;DHT22;50874;24.150;-110.320;2023-08-20T12:39:47;24.80;99.90
64501;DHT22;50874;24.150;-110.320;2023-08-20T12:42:13;24.80;99.90
64501;DHT22;50874;24.150;-110.320;2023-08-20T12:44:39;24.80;99.90
64501;DHT22;50874;24.150;-110.320;2023-08-20T12:47:06;24.80;99.90
64501;DHT22;50874;24.150;-110.320;2023-08-20T12:49:32;24.80;99.90
64501;DHT22;50874;24.150;-110.320;2023-08-20T12:51:59;24.80;99.90
64501;DHT22;50874;24.150;-110.320;2023-08-20T12:54:25;24.70;99.90
64501;DHT22;50874;24.150;-110.320;2023-08-20T12:56:51;24.70;99.90
64501;DHT22;50874;24.150;-110.320;2023-08-20T12:59:18;24.70;99.90
64501;DHT22;50874;24.150;-110.320;2023-08-20T13:01:44;24.70;99.90
64501;DHT22;50874;24.150;-110.320;2023-08-20T13:04:11;24.70;99.90
64501;DHT22;50874;24.150;-110.320;2023-08-20T13:06:38;24.80;99.90
64501;DHT22;50874;24.150;-110.320;2023-08-20T13:09:05;24.80;99.90
64501;DHT22;50874;24.150;-110.320;2023-08-20T13:11:33;24.80;99.90
64501;DHT22;50874;24.150;-110.320;2023-08-20T13:13:59;24.80;99.90
64501;DHT22;50874;24.150;-110.320;2023-08-20T13:16:26;24.80;99.90
64501;DHT22;50874;24.150;-110.320;2023-08-20T13:18:53;24.80;99.90
64501;DHT22;50874;24.150;-110.320;2023-08-20T13:21:19;24.80;99.90
64501;DHT22;50874;24.150;-110.320;2023-08-20T13:23:47;24.80;99.90
64501;DHT22;50874;24.150;-110.320;2023-08-20T13:26:13;24.80;99.90
64501;DHT22;50874;24.150;-110.320;2023-08-20T13:28:40;24.80;99.90
64501;DHT22;50874;24.150;-110.320;2023-08-20T13:31:06;24.80;99.90
64501;DHT22;50874;24.150;-110.320;2023-08-20T13:33:33;24.90;99.90
64501;DHT22;50874;24.150;-110.320;2023-08-20T13:35:59;25.00;99.90
64501;DHT22;50874;24.150;-110.320;2023-08-20T13:38:26;25.00;99.90
64501;DHT22;50874;24.150;-110.320;2023-08-20T13:40:53;25.10;99.90
64501;DHT22;50874;24.150;-110.320;2023-08-20T13:43:21;25.10;99.90
64501;DHT22;50874;24.150;-110.320;2023-08-20T13:45:49;25.20;99.90
64501;DHT22;50874;24.150;-110.320;2023-08-20T13:48:15;25.20;99.90
64501;DHT22;50874;24.150;-110.320;2023-08-20T13:50:42;25.20;99.90
64501;DHT22;50874;24.150;-110.320;2023-08-20T13:53:08;25.30;99.90
64501;DHT22;50874;24.150;-110.320;2023-08-20T13:55:36;25.40;99.90
64501;DHT22;50874;24.150;-110.320;2023-08-20T13:58:03;25.60;99.90
64501;DHT22;50874;24.150;-110.320;2023-08-20T14:00:29;25.60;99.90
64501;DHT22;50874;24.150;-110.320;2023-08-20T14:02:57;25.70;99.90
64501;DHT22;50874;24.150;-110.320;2023-08-20T14:05:24;25.80;99.90
64501;DHT22;50874;24.150;-110.320;2023-08-20T14:07:51;25.80;99.90
64501;DHT22;50874;24.150;-110.320;2023-08-20T14:10:17;25.70;99.90
64501;DHT22;50874;24.150;-110.320;2023-08-20T14:12:44;25.70;99.90
64501;DHT22;50874;24.150;-110.320;2023-08-20T14:15:10;25.80;99.90
64501;DHT22;50874;24.150;-110.320;2023-08-20T14:17:37;25.90;99.90
64501;DHT22;50874;24.150;-110.320;2023-08-20T14:20:04;25.90;99.90
64501;DHT22;50874;24.150;-110.320;2023-08-20T14:22:32;25.90;99.90
64501;DHT22;50874;24.150;-110.320;2023-08-20T14:24:59;25.90;99.90
64501;DHT22;50874;24.150;-110.320;2023-08-20T14:27:25;26.00;99.90
64501;DHT22;50874;24.150;-110.320;2023-08-20T14:29:52;26.00;99.90
64501;DHT22;50874;24.150;-110.320;2023-08-20T14:32:18;26.10;99.90
64501;DHT22;50874;24.150;-110.320;2023-08-20T14:34:45;26.40;99.90
64501;DHT22;50874;24.150;-110.320;2023-08-20T14:37:12;26.60;99.90
64501;DHT22;50874;24.150;-110.320;2023-08-20T14:39:39;26.50;99.90
64501;DHT22;50874;24.150;-110.320;2023-08-20T14:42:06;26.60;99.90
64501;DHT22;50874;24.150;-110.320;2023-08-20T14:44:32;26.60;99.90
64501;DHT22;50874;24.150;-110.320;2023-08-20T14:46:58;27.00;99.90
64501;DHT22;50874;24.150;-110.320;2023-08-20T14:49:25;27.40;99.90
64501;DHT22;50874;24.150;-110.320;2023-08-20T14:51:53;27.70;99.90
64501;DHT22;50874;24.150;-110.320;2023-08-20T14:54:19;27.50;99.90
64501;DHT22;50874;24.150;-110.320;2023-08-20T14:56:46;27.40;99.90
64501;DHT22;50874;24.150;-110.320;2023-08-20T14:59:12;27.30;99.90
64501;DHT22;50874;24.150;-110.320;2023-08-20T15:01:39;26.90;99.90
64501;DHT22;50874;24.150;-110.320;2023-08-20T15:04:05;26.70;99.90
64501;DHT22;50874;24.150;-110.320;2023-08-20T15:06:32;26.80;99.90
64501;DHT22;50874;24.150;-110.320;2023-08-20T15:08:59;27.00;99.90
64501;DHT22;50874;24.150;-110.320;2023-08-20T15:11:25;27.10;99.90
64501;DHT22;50874;24.150;-110.320;2023-08-20T15:13:53;27.20;99.90
64501;DHT22;50874;24.150;-110.320;2023-08-20T15:16:20;27.50;99.90
64501;DHT22;50874;24.150;-110.320;2023-08-20T15:18:46;27.90;99.90
64501;DHT22;50874;24.150;-110.320;2023-08-20T15:21:13;28.40;99.90
64501;DHT22;50874;24.150;-110.320;2023-08-20T15:23:39;28.70;99.90
64501;DHT22;50874;24.150;-110.320;2023-08-20T15:26:05;28.90;99.90
64501;DHT22;50874;24.150;-110.320;2023-08-20T15:28:32;28.80;99.90
64501;DHT22;50874;24.150;-110.320;2023-08-20T15:31:00;28.60;99.90
64501;DHT22;50874;24.150;-110.320;2023-08-20T15:33:27;28.30;99.90
64501;DHT22;50874;24.150;-110.320;2023-08-20T15:35:53;28.40;99.90
64501;DHT22;50874;24.150;-110.320;2023-08-20T15:38:20;28.10;99.90
64501;DHT22;50874;24.150;-110.320;2023-08-20T15:40:46;27.90;99.90
64501;DHT22;50874;24.150;-110.320;2023-08-20T15:43:13;27.80;99.90
64501;DHT22;50874;24.150;-110.320;2023-08-20T15:45:40;27.70;99.90
64501;DHT22;50874;24.150;-110.320;2023-08-20T15:48:07;27.50;99.90
64501;DHT22;50874;24.150;-110.320;2023-08-20T15:50:34;27.10;99.90
64501;DHT22;50874;24.150;-110.320;2023-08-20T15:53:00;26.90;99.90
64501;DHT22;50874;24.150;-110.320;2023-08-20T15:55:27;26.80;99.90
64501;DHT22;50874;24.150;-110.320;2023-08-20T15:57:53;26.90;99.90
64501;DHT22;50874;24.150;-110.320;2023-08-20T16:00:20;27.20;99.90
64501;DHT22;50874;24.150;-110.320;2023-08-20T16:02:47;28.10;99.90
64501;DHT22;50874;24.150;-110.320;2023-08-20T16:05:14;28.80;99.90
64501;DHT22;50874;24.150;-110.320;2023-08-20T16:07:41;28.80;99.90
64501;DHT22;50874;24.150;-110.320;2023-08-20T16:10:08;29.50;99.90
64501;DHT22;50874;24.150;-110.320;2023-08-20T16:12:35;30.30;99.90
64501;DHT22;50874;24.150;-110.320;2023-08-20T16:15:02;30.50;99.90
64501;DHT22;50874;24.150;-110.320;2023-08-20T16:17:30;30.30;99.90
64501;DHT22;50874;24.150;-110.320;2023-08-20T16:19:59;30.50;99.90
64501;DHT22;50874;24.150;-110.320;2023-08-20T16:22:26;30.90;99.90
64501;DHT22;50874;24.150;-110.320;2023-08-20T16:24:53;31.10;99.90
64501;DHT22;50874;24.150;-110.320;2023-08-20T16:27:20;31.10;99.90
64501;DHT22;50874;24.150;-110.320;2023-08-20T16:29:46;31.00;99.90
64501;DHT22;50874;24.150;-110.320;2023-08-20T16:32:13;31.10;99.90
64501;DHT22;50874;24.150;-110.320;2023-08-20T16:34:39;30.90;99.90
64501;DHT22;50874;24.150;-110.320;2023-08-20T16:37:06;31.00;99.90
64501;DHT22;50874;24.150;-110.320;2023-08-20T16:39:32;31.10;99.90
64501;DHT22;50874;24.150;-110.320;2023-08-20T16:41:59;31.10;99.90
64501;DHT22;50874;24.150;-110.320;2023-08-20T16:44:25;30.90;99.90
64501;DHT22;50874;24.150;-110.320;2023-08-20T16:46:52;30.60;99.90
64501;DHT22;50874;24.150;-110.320;2023-08-20T16:49:19;30.30;99.90
64501;DHT22;50874;24.150;-110.320;2023-08-20T16:51:45;30.20;99.90
64501;DHT22;50874;24.150;-110.320;2023-08-20T16:54:12;30.10;99.90
64501;DHT22;50874;24.150;-110.320;2023-08-20T16:56:39;30.00;99.90
64501;DHT22;50874;24.150;-110.320;2023-08-20T16:59:05;30.00;99.90
64501;DHT22;50874;24.150;-110.320;2023-08-20T17:01:32;30.20;99.90
64501;DHT22;50874;24.150;-110.320;2023-08-20T17:03:58;30.30;99.90
64501;DHT22;50874;24.150;-110.320;2023-08-20T17:06:25;30.20;99.90
64501;DHT22;50874;24.150;-110.320;2023-08-20T17:08:51;30.10;99.90
64501;DHT22;50874;24.150;-110.320;2023-08-20T17:11:18;30.10;99.90
64501;DHT22;50874;24.150;-110.320;2023-08-20T17:13:44;30.10;99.90
64501;DHT22;50874;24.150;-110.320;2023-08-20T17:16:10;30.00;99.90
64501;DHT22;50874;24.150;-110.320;2023-08-20T17:18:37;29.80;99.90
64501;DHT22;50874;24.150;-110.320;2023-08-20T17:21:03;29.70;99.90
64501;DHT22;50874;24.150;-110.320;2023-08-20T17:23:30;29.70;99.90
64501;DHT22;50874;24.150;-110.320;2023-08-20T17:25:57;29.80;99.90
64501;DHT22;50874;24.150;-110.320;2023-08-20T17:28:23;29.70;99.90
64501;DHT22;50874;24.150;-110.320;2023-08-20T17:30:50;29.60;99.90
64501;DHT22;50874;24.150;-110.320;2023-08-20T17:33:17;29.40;99.90
64501;DHT22;50874;24.150;-110.320;2023-08-20T17:35:43;29.70;99.90
64501;DHT22;50874;24.150;-110.320;2023-08-20T17:38:10;29.70;99.90
64501;DHT22;50874;24.150;-110.320;2023-08-20T17:40:38;29.70;99.90
64501;DHT22;50874;24.150;-110.320;2023-08-20T17:43:04;29.70;99.90
64501;DHT22;50874;24.150;-110.320;2023-08-20T17:45:33;30.10;99.90
64501;DHT22;50874;24.150;-110.320;2023-08-20T17:48:00;30.80;99.90
64501;DHT22;50874;24.150;-110.320;2023-08-20T17:50:26;31.70;99.90
64501;DHT22;50874;24.150;-110.320;2023-08-20T17:52:53;32.00;99.90
64501;DHT22;50874;24.150;-110.320;2023-08-20T17:55:19;32.30;99.90
64501;DHT22;50874;24.150;-110.320;2023-08-20T17:57:46;32.50;99.90
64501;DHT22;50874;24.150;-110.320;2023-08-20T18:00:12;32.60;99.90
64501;DHT22;50874;24.150;-110.320;2023-08-20T18:02:39;32.60;99.90
64501;DHT22;50874;24.150;-110.320;2023-08-20T18:05:05;32.50;99.90
64501;DHT22;50874;24.150;-110.320;2023-08-20T18:07:33;32.30;99.90
64501;DHT22;50874;24.150;-110.320;2023-08-20T18:10:01;32.60;99.90
64501;DHT22;50874;24.150;-110.320;2023-08-20T18:12:27;33.50;99.90